createdAt,value
2023-03-11T00:03:57.890Z,85.23
2023-03-11T00:09:07.610Z,85.37
2023-03-11T00:14:17.349Z,85.45
2023-03-11T00:19:27.021Z,85.32
2023-03-11T00:24:37.770Z,85.27
2023-03-11T00:29:47.634Z,85.31
2023-03-11T00:34:57.303Z,85.46
2023-03-11T00:40:09.243Z,85.46
2023-03-11T00:45:19.333Z,85.33
2023-03-11T00:50:32.533Z,85.77
2023-03-11T00:55:42.547Z,85.85
2023-03-11T01:00:52.178Z,85.82
2023-03-11T01:06:01.845Z,85.74
2023-03-11T01:11:12.536Z,85.66
2023-03-11T01:16:22.815Z,85.57
2023-03-11T01:21:32.479Z,85.57
2023-03-11T01:26:42.154Z,85.54
2023-03-11T01:31:51.945Z,85.53
2023-03-11T01:37:01.810Z,85.51
2023-03-11T01:42:12.292Z,85.60
2023-03-11T01:47:44.011Z,85.50
2023-03-11T01:52:54.842Z,85.54
2023-03-11T01:58:07.602Z,85.54
2023-03-11T02:03:24.382Z,85.56
2023-03-11T02:08:35.509Z,85.61
2023-03-11T02:13:46.957Z,85.63
2023-03-11T02:18:57.156Z,85.52
2023-03-11T02:24:16.038Z,85.55
2023-03-11T02:29:28.837Z,85.50
2023-03-11T02:34:41.292Z,85.48
2023-03-11T02:39:53.804Z,85.50
2023-03-11T02:45:10.863Z,85.61
2023-03-11T02:50:22.418Z,85.61
2023-03-11T02:55:32.302Z,85.71
2023-03-11T03:00:41.997Z,85.72
2023-03-11T03:05:51.838Z,85.68
2023-03-11T03:11:01.491Z,85.64
2023-03-11T03:16:12.241Z,85.75
2023-03-11T03:21:22.022Z,85.79
2023-03-11T03:26:31.641Z,85.76
2023-03-11T03:31:41.350Z,85.79
2023-03-11T03:36:50.974Z,85.81
2023-03-11T03:42:00.936Z,85.90
2023-03-11T03:47:10.934Z,85.89
2023-03-11T03:52:20.554Z,85.83
2023-03-11T03:57:31.760Z,85.85
2023-03-11T04:02:41.468Z,85.88
2023-03-11T04:07:51.126Z,85.96
2023-03-11T04:13:00.912Z,86.03
2023-03-11T04:18:11.068Z,86.03
2023-03-11T04:23:20.653Z,85.98
2023-03-11T04:28:30.653Z,86.00
2023-03-11T04:33:40.490Z,85.94
2023-03-11T04:38:50.590Z,85.92
2023-03-11T04:44:00.508Z,85.86
2023-03-11T04:49:10.613Z,85.88
2023-03-11T04:54:20.377Z,85.93
2023-03-11T04:59:31.430Z,85.93
2023-03-11T05:04:41.390Z,85.95
2023-03-11T05:09:51.138Z,85.99
2023-03-11T05:15:00.794Z,86.11
2023-03-11T05:20:15.098Z,86.03
2023-03-11T05:25:26.188Z,85.93
2023-03-11T05:30:35.772Z,86.03
2023-03-11T05:35:45.648Z,86.03
2023-03-11T05:40:55.412Z,85.98
2023-03-11T05:46:05.704Z,86.32
2023-03-11T05:51:16.488Z,86.60
2023-03-11T05:56:27.052Z,86.71
2023-03-11T06:01:36.928Z,86.76
2023-03-11T06:06:47.677Z,86.82
2023-03-11T06:11:57.289Z,86.53
2023-03-11T06:17:07.078Z,85.93
2023-03-11T06:22:16.991Z,85.71
2023-03-11T06:27:26.780Z,85.85
2023-03-11T06:32:37.519Z,85.29
2023-03-11T06:37:47.212Z,84.97
2023-03-11T06:42:56.934Z,84.86
2023-03-11T06:48:06.951Z,85.29
2023-03-11T06:53:16.814Z,85.07
2023-03-11T06:58:26.699Z,84.99
2023-03-11T07:03:36.494Z,84.61
2023-03-11T07:08:47.365Z,84.15
2023-03-11T07:13:58.047Z,84.18
2023-03-11T07:19:07.908Z,83.93
2023-03-11T07:24:18.175Z,83.85
2023-03-11T07:29:28.085Z,83.95
2023-03-11T07:34:37.975Z,84.13
2023-03-11T07:39:48.177Z,83.76
2023-03-11T07:44:58.404Z,83.68
2023-03-11T07:50:08.743Z,83.48
2023-03-11T07:55:18.406Z,83.35
2023-03-11T08:00:28.722Z,82.99
2023-03-11T08:05:40.123Z,82.75
2023-03-11T08:10:49.841Z,82.55
2023-03-11T08:15:59.679Z,82.04
2023-03-11T08:21:14.101Z,82.21
2023-03-11T08:26:25.316Z,82.61
2023-03-11T08:31:37.102Z,82.86
2023-03-11T08:36:47.433Z,82.64
2023-03-11T08:41:57.438Z,82.68
2023-03-11T08:47:07.613Z,82.57
2023-03-11T08:52:17.422Z,82.79
2023-03-11T08:57:27.220Z,82.52
2023-03-11T09:02:36.797Z,82.46
2023-03-11T09:07:47.018Z,82.51
2023-03-11T09:12:56.752Z,82.68
2023-03-11T09:18:06.588Z,82.63
2023-03-11T09:23:18.971Z,82.60
2023-03-11T09:28:28.694Z,82.55
2023-03-11T09:33:43.114Z,82.54
2023-03-11T09:38:53.132Z,82.54
2023-03-11T09:44:20.339Z,82.50
2023-03-11T09:49:47.822Z,82.46
2023-03-11T09:54:59.732Z,82.04
2023-03-11T10:00:19.562Z,81.68
2023-03-11T10:05:33.102Z,81.68
2023-03-11T10:10:52.971Z,81.52
2023-03-11T10:16:17.428Z,81.50
2023-03-11T10:21:43.369Z,81.38
2023-03-11T10:27:00.717Z,81.50
2023-03-11T10:32:21.219Z,81.07
2023-03-11T10:37:49.272Z,80.84
2023-03-11T10:43:04.813Z,80.40
2023-03-11T10:48:18.095Z,80.46
2023-03-11T10:53:27.851Z,80.61
2023-03-11T10:58:37.513Z,80.27
2023-03-11T11:03:51.722Z,80.08
2023-03-11T11:09:23.661Z,79.90
2023-03-11T11:14:50.426Z,79.97
2023-03-11T11:20:13.241Z,79.78
2023-03-11T11:25:38.865Z,79.62
2023-03-11T11:31:04.312Z,79.65
2023-03-11T11:36:19.721Z,79.65
2023-03-11T11:41:33.647Z,79.55
2023-03-11T11:46:48.124Z,79.35
2023-03-11T11:52:07.244Z,79.11
2023-03-11T11:57:19.345Z,78.45
2023-03-11T12:02:54.982Z,78.14
2023-03-11T12:08:19.093Z,78.17
2023-03-11T12:13:52.289Z,78.14
2023-03-11T12:19:10.434Z,77.80
2023-03-11T12:24:45.784Z,77.38
2023-03-11T12:30:01.871Z,76.68
2023-03-11T12:35:28.026Z,76.33
2023-03-11T12:41:01.998Z,75.62
2023-03-11T12:46:14.604Z,75.55
2023-03-11T12:52:01.601Z,74.79
2023-03-11T12:57:36.329Z,74.14
2023-03-11T13:03:26.744Z,74.21
2023-03-11T13:08:50.014Z,73.97
2023-03-11T13:14:29.289Z,73.50
2023-03-11T13:20:00.223Z,73.21
2023-03-11T13:25:33.546Z,71.82
2023-03-11T13:30:57.032Z,71.48
2023-03-11T13:36:38.227Z,71.39
2023-03-11T13:41:49.264Z,71.47
2023-03-11T13:47:07.457Z,71.78
2023-03-11T13:52:25.831Z,71.64
2023-03-11T13:57:38.120Z,71.38
2023-03-11T14:02:55.524Z,70.81
2023-03-11T14:08:27.182Z,70.71
2023-03-11T14:13:43.337Z,71.43
2023-03-11T14:19:05.519Z,71.65
2023-03-11T14:24:24.733Z,71.50
2023-03-11T14:29:38.341Z,71.70
2023-03-11T14:34:48.333Z,72.06
2023-03-11T14:39:58.373Z,72.57
2023-03-11T14:45:16.292Z,72.89
2023-03-11T14:50:29.722Z,73.51
2023-03-11T14:55:44.798Z,74.71
2023-03-11T15:01:01.642Z,75.79
2023-03-11T15:06:17.622Z,76.36
2023-03-11T15:11:29.036Z,76.93
2023-03-11T15:16:40.725Z,77.42
2023-03-11T15:21:55.530Z,77.35
2023-03-11T15:27:10.217Z,77.21
2023-03-11T15:32:44.946Z,76.54
2023-03-11T15:38:21.233Z,75.97
2023-03-11T15:43:34.838Z,75.57
2023-03-11T15:48:46.149Z,75.14
2023-03-11T15:53:56.029Z,75.28
2023-03-11T15:59:05.742Z,74.81
2023-03-11T16:04:22.157Z,74.93
2023-03-11T16:09:33.281Z,74.40
2023-03-11T16:14:42.855Z,74.39
2023-03-11T16:19:52.767Z,74.91
2023-03-11T16:25:05.127Z,74.72
2023-03-11T16:30:18.845Z,74.85
2023-03-11T16:35:28.964Z,75.11
2023-03-11T16:40:38.739Z,75.04
2023-03-11T16:45:48.733Z,74.88
2023-03-11T16:50:59.191Z,75.00
2023-03-11T16:56:10.389Z,74.83
2023-03-11T17:01:22.062Z,74.49
2023-03-11T17:06:31.997Z,73.95
2023-03-11T17:11:42.148Z,74.03
2023-03-11T17:16:51.936Z,74.17
2023-03-11T17:22:01.792Z,74.31
2023-03-11T17:27:11.708Z,74.39
2023-03-11T17:32:21.784Z,74.38
2023-03-11T17:37:32.021Z,74.05
2023-03-11T17:42:43.705Z,73.13
2023-03-11T17:47:53.385Z,72.71
2023-03-11T17:53:03.972Z,72.26
2023-03-11T17:58:13.753Z,72.49
2023-03-11T18:03:23.588Z,71.75
2023-03-11T18:08:34.115Z,72.10
2023-03-11T18:13:44.543Z,71.64
2023-03-11T18:18:55.269Z,70.99
2023-03-11T18:24:05.802Z,71.54
2023-03-11T18:29:15.362Z,71.45
2023-03-11T18:34:25.248Z,71.47
2023-03-11T18:39:35.619Z,71.34
2023-03-11T18:44:45.672Z,71.33
2023-03-11T18:49:55.982Z,71.33
2023-03-11T18:55:06.041Z,71.29
2023-03-11T19:00:22.844Z,71.54
2023-03-11T19:05:32.589Z,71.71
2023-03-11T19:10:44.113Z,71.78
2023-03-11T19:15:54.779Z,71.85
2023-03-11T19:21:07.326Z,72.18
2023-03-11T19:26:17.475Z,72.64
2023-03-11T19:31:27.186Z,72.88
2023-03-11T19:36:37.165Z,73.00
2023-03-11T19:41:47.060Z,73.42
2023-03-11T19:46:57.056Z,73.58
2023-03-11T19:52:10.018Z,73.79
2023-03-11T19:57:20.075Z,73.93
2023-03-11T20:02:30.131Z,73.94
2023-03-11T20:07:40.041Z,74.16
2023-03-11T20:13:01.790Z,74.10
2023-03-11T20:18:12.810Z,74.18
2023-03-11T20:23:22.547Z,74.26
2023-03-11T20:28:32.364Z,74.39
2023-03-11T20:33:42.642Z,74.58
2023-03-11T20:38:53.062Z,74.65
2023-03-11T20:44:02.714Z,74.75
2023-03-11T20:49:12.564Z,75.10
2023-03-11T20:54:22.671Z,75.23
2023-03-11T20:59:32.450Z,75.50
2023-03-11T21:04:44.341Z,75.90
2023-03-11T21:09:55.389Z,76.08
2023-03-11T21:15:05.642Z,76.50
2023-03-11T21:20:17.026Z,76.71
2023-03-11T21:25:26.798Z,76.79
2023-03-11T21:30:36.860Z,77.10
2023-03-11T21:35:46.460Z,77.35
2023-03-11T21:41:05.966Z,77.61
2023-03-11T21:46:18.863Z,77.84
2023-03-11T21:51:30.059Z,77.93
2023-03-11T21:56:39.776Z,78.04
2023-03-11T22:01:49.907Z,78.37
2023-03-11T22:07:00.115Z,78.61
2023-03-11T22:12:11.392Z,78.71
2023-03-11T22:17:21.161Z,79.08
2023-03-11T22:22:31.246Z,78.68
2023-03-11T22:27:41.326Z,78.96
2023-03-11T22:32:51.345Z,79.21
2023-03-11T22:38:01.248Z,79.12
2023-03-11T22:43:10.805Z,79.28
2023-03-11T22:48:20.440Z,79.22
2023-03-11T22:53:30.242Z,79.19
2023-03-11T22:58:40.448Z,79.25
2023-03-11T23:03:50.423Z,79.39
2023-03-11T23:09:00.117Z,79.30
2023-03-11T23:14:10.150Z,79.51
2023-03-11T23:19:19.928Z,79.42
2023-03-11T23:24:30.246Z,79.47
2023-03-11T23:29:39.996Z,79.50
2023-03-11T23:34:50.037Z,79.43
2023-03-11T23:40:00.181Z,79.40
2023-03-11T23:45:12.640Z,79.52
2023-03-11T23:50:22.737Z,79.72
2023-03-11T23:55:32.473Z,79.54
